Time;durP1;ratioP1;P1;durP2;ratioP2;P2;SDS_P1;SDS_P2;PMS_P1;PMS_P2;Temp;Humidity;BMP_temperature;BMP_pressure;BME280_temperature;BME280_humidity;BME280_pressure;Samples;Min_cycle;Max_cycle;Signal;HPM_P1;HPM_P2
2021/05/05 00:01:23;;;;;;;16.42;3.78;;;28.80;30.00;;;;;;5074923;28;20020;-73
2021/05/05 00:03:50;;;;;;;14.23;4.05;;;28.80;30.50;;;;;;5061021;28;20017;-73
2021/05/05 00:06:17;;;;;;;11.30;3.40;;;28.60;30.10;;;;;;5067817;28;20044;-73
2021/05/05 00:08:44;;;;;;;15.73;3.42;;;28.50;30.10;;;;;;5068735;28;20044;-74
2021/05/05 00:11:12;;;;;;;11.82;3.22;;;28.10;30.20;;;;;;5075463;28;20052;-73
2021/05/05 00:13:38;;;;;;;9.82;2.97;;;27.80;30.70;;;;;;5063775;28;20400;-74
2021/05/05 00:16:06;;;;;;;10.00;3.65;;;27.90;30.60;;;;;;5067516;28;20047;-73
2021/05/05 00:18:33;;;;;;;12.25;3.35;;;27.70;30.90;;;;;;5074018;28;20028;-73
2021/05/05 00:20:59;;;;;;;15.70;4.07;;;27.50;31.90;;;;;;5074937;28;20366;-73
2021/05/05 00:23:26;;;;;;;14.40;4.50;;;27.40;31.80;;;;;;5073806;28;20696;-73
2021/05/05 00:25:52;;;;;;;11.50;3.33;;;27.20;32.00;;;;;;5071355;28;20439;-72
2021/05/05 00:28:18;;;;;;;14.80;4.05;;;27.10;32.30;;;;;;5068899;28;20418;-72
2021/05/05 00:30:46;;;;;;;16.10;3.42;;;27.00;32.50;;;;;;5069720;28;20036;-74
2021/05/05 00:33:12;;;;;;;10.23;3.30;;;26.90;32.80;;;;;;5072014;28;20455;-73
2021/05/05 00:35:38;;;;;;;13.35;3.63;;;26.80;32.60;;;;;;5075498;28;20434;-73
2021/05/05 00:38:05;;;;;;;12.00;2.95;;;26.50;32.90;;;;;;5070271;28;20412;-73
2021/05/05 00:40:32;;;;;;;11.27;3.97;;;26.40;33.20;;;;;;5066347;28;20017;-73
2021/05/05 00:42:59;;;;;;;12.88;4.97;;;26.50;33.10;;;;;;5074064;28;20021;-73
2021/05/05 00:45:25;;;;;;;13.52;3.67;;;26.40;33.10;;;;;;5075732;28;20100;-72
2021/05/05 00:47:52;;;;;;;11.02;3.70;;;26.20;33.50;;;;;;5073678;28;20013;-73
2021/05/05 00:50:18;;;;;;;11.95;4.00;;;26.10;33.70;;;;;;5076209;28;20021;-73
2021/05/05 00:52:46;;;;;;;18.63;3.75;;;25.90;34.00;;;;;;5075914;28;20094;-73
2021/05/05 00:55:14;;;;;;;15.77;4.03;;;25.60;34.50;;;;;;5076049;28;20404;-73
2021/05/05 00:57:42;;;;;;;15.50;5.07;;;25.60;34.40;;;;;;5076190;28;20024;-73
2021/05/05 01:00:10;;;;;;;12.52;3.75;;;25.30;34.60;;;;;;5074590;28;20475;-73
2021/05/05 01:02:37;;;;;;;15.52;4.60;;;25.10;35.00;;;;;;5070374;28;20035;-73
2021/05/05 01:05:07;;;;;;;16.00;3.13;;;25.00;34.90;;;;;;5082842;28;20032;-72
2021/05/05 01:07:35;;;;;;;16.65;3.78;;;24.90;35.20;;;;;;5094183;28;20033;-74
2021/05/05 01:10:03;;;;;;;14.95;3.78;;;24.70;35.30;;;;;;5076565;28;20025;-72
2021/05/05 01:12:30;;;;;;;14.77;2.55;;;24.70;36.00;;;;;;5066013;28;20032;-72
2021/05/05 01:14:56;;;;;;;14.18;3.58;;;24.80;35.60;;;;;;5073066;28;20085;-73
2021/05/05 01:17:22;;;;;;;14.32;3.80;;;24.80;35.50;;;;;;5075414;28;20056;-72
2021/05/05 01:19:49;;;;;;;11.75;3.30;;;24.90;35.60;;;;;;5068903;28;20017;-73
2021/05/05 01:22:15;;;;;;;15.40;3.85;;;24.70;35.50;;;;;;5067582;28;20320;-73
2021/05/05 01:24:42;;;;;;;9.57;4.22;;;24.80;35.40;;;;;;5072303;28;20020;-72
2021/05/05 01:27:09;;;;;;;16.63;4.18;;;24.60;35.50;;;;;;5075177;28;20512;-73
2021/05/05 01:29:36;;;;;;;22.48;10.85;;;24.50;36.10;;;;;;5072695;28;20108;-73
2021/05/05 01:32:04;;;;;;;19.85;6.05;;;24.50;36.20;;;;;;5068663;28;20131;-73
2021/05/05 01:34:32;;;;;;;11.15;3.15;;;24.60;36.10;;;;;;5068029;28;20060;-74
2021/05/05 01:36:58;;;;;;;17.42;4.10;;;24.60;36.10;;;;;;5068675;28;20024;-73
2021/05/05 01:39:25;;;;;;;13.82;3.25;;;24.30;36.60;;;;;;5072107;28;20412;-72
2021/05/05 01:41:52;;;;;;;15.38;4.05;;;24.30;36.70;;;;;;5065090;28;20024;-73
2021/05/05 01:44:33;;;;;;;11.07;3.15;;;24.20;36.50;;;;;;5073207;28;20017;-73
2021/05/05 01:47:00;;;;;;;23.65;6.88;;;24.10;36.80;;;;;;5058438;28;20028;-73
2021/05/05 01:49:28;;;;;;;14.98;4.72;;;24.00;37.00;;;;;;5065745;28;20060;-73
2021/05/05 01:51:56;;;;;;;14.02;3.80;;;23.90;37.00;;;;;;5065043;28;20090;-73
2021/05/05 01:54:24;;;;;;;13.80;4.13;;;23.70;37.40;;;;;;5065909;28;20091;-74
2021/05/05 01:56:51;;;;;;;15.77;4.63;;;23.60;37.70;;;;;;5066657;28;20040;-72
2021/05/05 01:59:18;;;;;;;14.02;3.30;;;23.40;37.80;;;;;;5072570;28;20047;-73
2021/05/05 02:01:44;;;;;;;19.80;5.20;;;23.30;38.20;;;;;;5071253;28;20059;-73
2021/05/05 02:04:12;;;;;;;14.18;2.88;;;23.20;38.30;;;;;;5071687;28;20116;-73
2021/05/05 02:06:38;;;;;;;14.10;5.43;;;22.90;38.40;;;;;;5074136;28;20403;-73
2021/05/05 02:09:07;;;;;;;15.40;4.15;;;23.00;38.20;;;;;;5074569;28;20032;-73
2021/05/05 02:11:33;;;;;;;13.65;3.13;;;22.80;38.90;;;;;;5064054;28;20033;-73
2021/05/05 02:13:59;;;;;;;15.65;5.50;;;22.70;38.20;;;;;;5071210;28;20025;-73
2021/05/05 02:16:26;;;;;;;10.20;3.08;;;22.50;39.00;;;;;;5068065;28;20103;-73
2021/05/05 02:18:52;;;;;;;12.68;3.65;;;22.50;38.80;;;;;;5071760;28;20335;-72
2021/05/05 02:21:18;;;;;;;10.88;3.22;;;22.30;38.70;;;;;;5068630;28;20370;-74
2021/05/05 02:23:45;;;;;;;21.92;4.85;;;22.10;39.70;;;;;;5073775;28;20032;-74
2021/05/05 02:26:11;;;;;;;15.32;2.63;;;22.30;39.80;;;;;;5068165;28;20059;-72
2021/05/05 02:28:39;;;;;;;16.38;4.32;;;22.10;39.70;;;;;;5069948;28;20346;-74
2021/05/05 02:31:05;;;;;;;15.85;4.90;;;21.90;39.70;;;;;;5066559;28;20096;-72
2021/05/05 02:33:32;;;;;;;12.40;2.88;;;21.80;40.30;;;;;;5062692;28;20035;-73
2021/05/05 02:35:58;;;;;;;24.08;3.67;;;21.60;41.20;;;;;;5061455;28;20051;-74
2021/05/05 02:38:24;;;;;;;14.65;3.25;;;21.40;40.60;;;;;;5066521;28;20036;-73
2021/05/05 02:40:51;;;;;;;12.77;3.50;;;21.20;40.90;;;;;;5072043;28;20361;-73
2021/05/05 02:43:17;;;;;;;15.15;3.88;;;21.10;41.30;;;;;;5073172;28;20028;-73
2021/05/05 02:45:43;;;;;;;13.35;4.38;;;21.10;41.70;;;;;;5071187;28;20033;-74
2021/05/05 02:48:10;;;;;;;17.50;5.63;;;20.90;41.60;;;;;;5073764;28;20036;-76
2021/05/05 02:50:38;;;;;;;18.55;5.88;;;20.80;41.40;;;;;;5087457;28;20025;-75
2021/05/05 02:53:05;;;;;;;12.50;3.88;;;20.70;42.40;;;;;;5075683;28;20545;-74
2021/05/05 02:55:32;;;;;;;16.02;3.20;;;20.40;41.80;;;;;;5084406;28;20103;-74
2021/05/05 02:57:58;;;;;;;24.15;3.67;;;20.40;42.20;;;;;;5110297;28;20024;-76
2021/05/05 03:00:25;;;;;;;17.13;5.03;;;20.40;42.60;;;;;;5092328;28;20019;-76
2021/05/05 03:02:51;;;;;;;20.17;5.60;;;20.40;43.40;;;;;;5090251;28;20090;-74
2021/05/05 03:05:18;;;;;;;19.45;5.75;;;20.30;42.70;;;;;;5074858;28;20024;-74
2021/05/05 03:07:45;;;;;;;14.57;4.00;;;19.90;42.70;;;;;;5070188;28;20390;-73
2021/05/05 03:10:12;;;;;;;19.52;4.53;;;19.90;43.10;;;;;;5073939;28;20016;-76
2021/05/05 03:12:39;;;;;;;22.52;6.05;;;20.00;44.40;;;;;;5071202;28;20025;-73
2021/05/05 03:15:07;;;;;;;20.80;4.60;;;19.70;43.20;;;;;;5074110;28;20044;-74
2021/05/05 03:17:33;;;;;;;14.00;3.60;;;19.40;44.00;;;;;;5076731;28;20056;-74
2021/05/05 03:20:00;;;;;;;25.50;6.30;;;19.50;44.30;;;;;;5063462;28;20025;-73
2021/05/05 03:22:26;;;;;;;14.48;4.05;;;19.40;44.80;;;;;;5073600;28;20047;-73
2021/05/05 03:24:52;;;;;;;14.77;4.38;;;19.40;43.70;;;;;;5062796;28;20078;-73
2021/05/05 03:27:19;;;;;;;19.90;5.00;;;19.20;43.70;;;;;;5068310;28;20025;-73
2021/05/05 03:29:45;;;;;;;19.80;3.50;;;19.00;44.30;;;;;;5072133;28;20146;-73
2021/05/05 03:32:12;;;;;;;22.85;5.20;;;18.90;44.30;;;;;;5071679;28;20029;-73
2021/05/05 03:34:38;;;;;;;13.15;3.42;;;18.70;45.60;;;;;;5065242;28;20044;-72
2021/05/05 03:37:05;;;;;;;16.88;3.97;;;18.60;44.90;;;;;;5068781;28;20056;-72
2021/05/05 03:39:31;;;;;;;22.23;4.50;;;18.70;45.70;;;;;;5067559;28;20039;-73
2021/05/05 03:41:58;;;;;;;23.77;4.43;;;18.60;45.10;;;;;;5067579;28;20032;-72
2021/05/05 03:44:24;;;;;;;19.65;4.97;;;18.60;43.70;;;;;;5063240;28;20454;-72
2021/05/05 03:46:51;;;;;;;31.02;5.50;;;18.60;44.40;;;;;;5056005;28;20044;-72
2021/05/05 03:49:18;;;;;;;14.43;3.67;;;18.60;43.70;;;;;;5069948;28;20028;-73
2021/05/05 03:51:44;;;;;;;18.02;4.43;;;18.70;45.70;;;;;;5072095;28;20026;-72
2021/05/05 03:54:10;;;;;;;18.13;4.28;;;18.80;45.40;;;;;;5070389;28;20025;-71
2021/05/05 03:56:37;;;;;;;20.75;5.05;;;18.70;45.10;;;;;;5070286;28;20089;-72
2021/05/05 03:59:03;;;;;;;18.83;4.93;;;18.70;45.50;;;;;;5065675;28;20028;-72
2021/05/05 04:01:30;;;;;;;34.78;5.72;;;18.60;45.80;;;;;;5067488;28;20104;-69
2021/05/05 04:03:56;;;;;;;18.60;4.60;;;18.60;46.30;;;;;;5074753;28;20512;-69
2021/05/05 04:06:23;;;;;;;15.90;4.20;;;18.50;46.10;;;;;;5095609;28;20119;-69
2021/05/05 04:08:49;;;;;;;14.30;4.00;;;18.50;46.00;;;;;;5077825;28;20078;-69
2021/05/05 04:11:16;;;;;;;20.10;4.95;;;18.50;47.70;;;;;;5072552;28;20115;-69
2021/05/05 04:13:42;;;;;;;13.95;3.60;;;18.40;46.20;;;;;;5071685;28;20474;-69
2021/05/05 04:16:09;;;;;;;19.50;4.10;;;18.30;46.40;;;;;;5072826;28;20027;-69
2021/05/05 04:18:35;;;;;;;23.58;5.30;;;18.10;47.50;;;;;;5072694;28;20304;-69
2021/05/05 04:21:04;;;;;;;27.35;4.68;;;18.20;46.80;;;;;;5076476;28;20020;-70
2021/05/05 04:23:32;;;;;;;15.18;3.53;;;18.10;46.00;;;;;;5074894;28;20025;-69
2021/05/05 04:25:58;;;;;;;19.30;5.07;;;18.20;47.10;;;;;;5079359;28;20100;-69
2021/05/05 04:28:25;;;;;;;14.90;4.05;;;18.20;46.50;;;;;;5069132;28;20086;-69
2021/05/05 04:30:52;;;;;;;17.00;4.57;;;18.00;46.90;;;;;;5078388;28;20033;-69
2021/05/05 04:33:19;;;;;;;8.68;3.33;;;17.90;47.10;;;;;;5073942;28;20442;-69
2021/05/05 04:35:45;;;;;;;19.77;3.45;;;17.80;48.30;;;;;;5072996;28;20040;-70
2021/05/05 04:38:13;;;;;;;15.68;5.22;;;17.50;49.30;;;;;;5084005;28;20442;-69
2021/05/05 04:40:40;;;;;;;9.77;3.25;;;17.50;49.70;;;;;;5074756;28;20090;-69
2021/05/05 04:43:06;;;;;;;17.38;3.65;;;17.60;48.80;;;;;;5081030;28;20107;-69
2021/05/05 04:45:32;;;;;;;19.70;4.25;;;17.50;48.60;;;;;;5075044;28;20017;-68
2021/05/05 04:48:02;;;;;;;14.35;4.05;;;17.50;46.90;;;;;;5085435;28;20116;-69
2021/05/05 04:50:28;;;;;;;22.15;4.07;;;17.60;45.80;;;;;;5083790;28;20035;-70
2021/05/05 04:52:55;;;;;;;13.55;3.35;;;17.80;46.10;;;;;;5081080;28;20024;-69
2021/05/05 04:55:22;;;;;;;24.92;5.78;;;17.80;47.10;;;;;;5088236;28;20719;-69
2021/05/05 04:57:48;;;;;;;16.65;3.88;;;17.90;45.90;;;;;;5084558;28;20055;-69
2021/05/05 05:00:16;;;;;;;24.45;4.10;;;17.90;46.00;;;;;;5070260;28;20025;-69
2021/05/05 05:02:42;;;;;;;23.55;4.45;;;17.90;47.00;;;;;;5064959;28;20025;-70
2021/05/05 05:05:09;;;;;;;18.65;4.60;;;17.80;45.80;;;;;;5070152;28;20104;-69
2021/05/05 05:07:35;;;;;;;19.45;5.07;;;17.70;47.60;;;;;;5068085;28;20161;-69
2021/05/05 05:10:04;;;;;;;28.60;4.65;;;17.70;46.00;;;;;;5080174;28;20033;-69
2021/05/05 05:12:30;;;;;;;19.48;4.57;;;17.70;47.90;;;;;;5069716;28;20027;-70
2021/05/05 05:14:57;;;;;;;11.23;3.80;;;17.60;46.00;;;;;;5077087;28;20458;-69
2021/05/05 05:17:23;;;;;;;22.75;4.45;;;17.50;46.00;;;;;;5068279;28;20039;-69
2021/05/05 05:19:50;;;;;;;11.15;3.42;;;17.60;46.60;;;;;;5067911;28;20036;-70
2021/05/05 05:22:17;;;;;;;19.77;4.70;;;17.50;48.00;;;;;;5068484;28;20024;-70
2021/05/05 05:24:43;;;;;;;19.00;3.75;;;17.40;47.70;;;;;;5071258;28;20078;-71
2021/05/05 05:27:10;;;;;;;13.95;3.15;;;17.40;47.10;;;;;;5071987;28;20416;-70
2021/05/05 05:29:36;;;;;;;17.77;3.55;;;17.30;48.50;;;;;;5073819;28;20052;-70
2021/05/05 05:32:03;;;;;;;21.08;4.30;;;17.20;48.60;;;;;;5086540;28;20067;-70
2021/05/05 05:34:30;;;;;;;13.13;4.22;;;17.20;48.50;;;;;;5073750;28;20102;-69
2021/05/05 05:36:56;;;;;;;9.48;3.22;;;17.20;49.00;;;;;;5071496;28;20040;-70
2021/05/05 05:39:22;;;;;;;14.98;3.42;;;17.20;48.10;;;;;;5071560;28;20029;-70
2021/05/05 05:41:49;;;;;;;17.70;3.47;;;17.20;48.00;;;;;;5085022;28;20357;-70
2021/05/05 05:44:15;;;;;;;13.23;3.80;;;17.20;48.30;;;;;;5083176;28;20024;-69
2021/05/05 05:46:41;;;;;;;16.00;3.33;;;17.10;47.80;;;;;;5079729;28;20027;-69
2021/05/05 05:49:09;;;;;;;21.70;5.00;;;17.20;47.90;;;;;;5075240;28;20039;-69
2021/05/05 05:51:36;;;;;;;15.90;4.25;;;17.20;46.50;;;;;;5073580;28;20436;-69
2021/05/05 05:54:05;;;;;;;26.75;4.30;;;17.20;48.10;;;;;;5070960;28;20362;-69
2021/05/05 05:56:32;;;;;;;13.45;4.70;;;17.10;48.60;;;;;;5067267;28;20028;-69
2021/05/05 05:58:59;;;;;;;20.88;4.55;;;17.00;48.20;;;;;;5077351;28;20025;-69
2021/05/05 06:01:25;;;;;;;17.58;3.63;;;17.10;47.10;;;;;;5066930;28;20032;-69
2021/05/05 06:03:52;;;;;;;18.58;4.72;;;17.10;46.50;;;;;;5075102;28;20026;-69
2021/05/05 06:06:18;;;;;;;12.63;4.57;;;17.00;47.10;;;;;;5074185;28;20086;-69
2021/05/05 06:08:45;;;;;;;16.80;3.40;;;17.10;48.50;;;;;;5075306;28;20032;-68
2021/05/05 06:11:11;;;;;;;24.63;5.03;;;17.00;48.30;;;;;;5070704;28;20087;-69
2021/05/05 06:13:39;;;;;;;12.02;3.47;;;16.90;50.70;;;;;;5067955;28;20383;-69
2021/05/05 06:16:05;;;;;;;20.77;4.38;;;17.10;50.50;;;;;;5068835;28;20039;-69
2021/05/05 06:18:32;;;;;;;19.88;6.45;;;17.00;49.30;;;;;;5072737;28;20095;-69
2021/05/05 06:21:00;;;;;;;23.90;5.97;;;16.80;49.40;;;;;;5072750;28;20070;-69
2021/05/05 06:23:27;;;;;;;19.98;4.43;;;16.90;50.30;;;;;;5071703;28;20666;-69
2021/05/05 06:25:53;;;;;;;14.38;4.82;;;16.90;50.30;;;;;;5072946;28;20050;-69
2021/05/05 06:28:19;;;;;;;19.58;3.95;;;16.70;50.40;;;;;;5070774;28;20017;-69
2021/05/05 06:30:46;;;;;;;22.67;3.95;;;16.70;49.40;;;;;;5071496;28;20028;-69
2021/05/05 06:33:12;;;;;;;16.88;4.65;;;16.80;50.00;;;;;;5072052;28;20051;-69
2021/05/05 06:35:39;;;;;;;25.08;5.93;;;16.90;50.70;;;;;;5068386;28;20028;-69
2021/05/05 06:38:05;;;;;;;20.60;5.28;;;16.90;49.40;;;;;;5071304;28;20024;-69
2021/05/05 06:40:31;;;;;;;15.85;4.60;;;16.80;50.50;;;;;;5078445;28;20033;-69
2021/05/05 06:42:58;;;;;;;19.52;4.72;;;16.80;50.90;;;;;;5072402;28;20028;-69
2021/05/05 06:45:24;;;;;;;19.98;4.68;;;16.70;50.60;;;;;;5079957;28;20074;-69
2021/05/05 06:47:51;;;;;;;24.55;7.10;;;16.60;50.30;;;;;;5077744;28;20378;-69
2021/05/05 06:50:17;;;;;;;18.67;4.43;;;16.60;52.00;;;;;;5075664;28;20029;-69
2021/05/05 06:52:44;;;;;;;25.67;6.97;;;16.60;51.10;;;;;;5072766;28;20024;-69
2021/05/05 06:55:11;;;;;;;17.20;5.63;;;16.60;51.60;;;;;;5073476;28;20021;-69
2021/05/05 06:57:38;;;;;;;13.90;4.57;;;16.60;50.60;;;;;;5088633;28;20596;-69
2021/05/05 07:00:08;;;;;;;17.48;3.70;;;16.40;51.70;;;;;;5072961;28;20681;-69
2021/05/05 07:02:35;;;;;;;39.53;7.38;;;16.30;52.00;;;;;;5075995;28;20017;-69
2021/05/05 07:05:01;;;;;;;16.55;3.67;;;16.30;49.80;;;;;;5060460;28;20094;-69
2021/05/05 07:07:30;;;;;;;26.83;4.93;;;16.30;50.40;;;;;;5066411;28;20043;-69
2021/05/05 07:09:57;;;;;;;22.63;3.90;;;16.40;51.70;;;;;;5061806;28;20036;-69
2021/05/05 07:12:24;;;;;;;13.80;3.97;;;16.20;51.80;;;;;;5072529;28;20362;-69
2021/05/05 07:14:51;;;;;;;28.08;4.68;;;16.30;50.70;;;;;;5072845;28;20531;-69
2021/05/05 07:17:17;;;;;;;25.60;6.07;;;16.20;51.00;;;;;;5069958;28;20037;-69
2021/05/05 07:19:44;;;;;;;14.07;3.72;;;16.50;52.50;;;;;;5075611;28;20350;-69
2021/05/05 07:22:10;;;;;;;15.57;4.30;;;16.20;52.20;;;;;;5070876;28;20024;-69
2021/05/05 07:24:39;;;;;;;17.20;3.10;;;16.10;53.00;;;;;;5072305;28;20040;-69
2021/05/05 07:27:06;;;;;;;20.45;5.10;;;16.10;52.40;;;;;;5076510;28;20025;-70
2021/05/05 07:29:32;;;;;;;23.20;5.60;;;16.10;52.20;;;;;;5087965;28;20043;-70
2021/05/05 07:31:59;;;;;;;21.70;4.07;;;16.00;52.50;;;;;;5073631;28;20029;-69
2021/05/05 07:34:26;;;;;;;15.90;4.50;;;16.00;52.00;;;;;;5083213;28;20370;-69
2021/05/05 07:36:57;;;;;;;17.52;3.72;;;16.00;49.90;;;;;;5089039;28;20025;-69
2021/05/05 07:39:52;;;;;;;21.70;5.00;;;16.00;51.90;;;;;;5089021;28;20129;-70
2021/05/05 07:47:41;;;;;;;25.08;5.75;;;16.10;51.20;;;;;;5075898;28;20025;-69
2021/05/05 07:50:10;;;;;;;15.55;3.50;;;16.10;52.20;;;;;;5077402;28;20438;-69
2021/05/05 07:52:37;;;;;;;30.95;4.93;;;16.00;51.60;;;;;;5074514;28;20032;-69
2021/05/05 07:55:05;;;;;;;21.08;4.45;;;16.00;51.50;;;;;;5075635;28;20063;-69
2021/05/05 07:57:32;;;;;;;31.75;4.85;;;15.90;52.40;;;;;;5075923;28;20029;-69
2021/05/05 07:59:58;;;;;;;16.63;4.88;;;16.00;51.50;;;;;;5077120;28;20103;-70
2021/05/05 08:02:25;;;;;;;22.02;5.22;;;15.90;51.90;;;;;;5072166;28;20020;-69
2021/05/05 08:04:51;;;;;;;14.77;3.45;;;16.00;53.10;;;;;;5078987;28;20429;-69
2021/05/05 08:07:22;;;;;;;13.30;4.10;;;15.90;53.30;;;;;;5075500;28;20032;-69
2021/05/05 08:09:49;;;;;;;19.52;3.72;;;15.90;51.70;;;;;;5075921;28;20032;-69
2021/05/05 08:12:16;;;;;;;35.78;8.30;;;15.90;52.70;;;;;;5093816;28;20028;-69
2021/05/05 08:14:44;;;;;;;27.40;6.10;;;15.90;52.00;;;;;;5073604;28;20466;-69
2021/05/05 08:17:11;;;;;;;27.00;5.22;;;15.90;53.50;;;;;;5073948;28;20025;-69
2021/05/05 08:19:38;;;;;;;13.07;4.35;;;15.80;52.90;;;;;;5075942;28;20111;-69
2021/05/05 08:22:05;;;;;;;18.20;4.85;;;15.60;54.00;;;;;;5075086;28;20024;-69
2021/05/05 08:24:32;;;;;;;22.98;5.15;;;15.60;54.40;;;;;;5073304;28;20458;-69
2021/05/05 08:27:00;;;;;;;12.93;3.78;;;15.70;52.70;;;;;;5079333;28;20383;-69
2021/05/05 08:29:28;;;;;;;16.15;3.80;;;15.70;53.80;;;;;;5075580;28;20028;-69
2021/05/05 08:31:56;;;;;;;13.00;3.17;;;15.50;53.70;;;;;;5077728;28;20446;-69
2021/05/05 08:34:24;;;;;;;10.63;5.10;;;15.40;54.20;;;;;;5080121;28;20037;-70
2021/05/05 08:36:51;;;;;;;23.02;5.57;;;15.40;54.60;;;;;;5073533;28;20349;-70
2021/05/05 08:39:17;;;;;;;18.88;7.50;;;15.40;53.50;;;;;;5074006;28;20445;-69
2021/05/05 08:41:44;;;;;;;31.65;6.18;;;15.50;54.60;;;;;;5073040;28;20028;-69
2021/05/05 08:44:12;;;;;;;20.25;5.22;;;15.60;53.80;;;;;;5077175;28;20082;-69
2021/05/05 08:46:43;;;;;;;27.40;5.40;;;15.60;54.20;;;;;;5079406;28;20035;-71
2021/05/05 08:49:11;;;;;;;17.35;4.22;;;15.50;53.50;;;;;;5073071;28;20528;-69
2021/05/05 08:51:38;;;;;;;18.10;3.95;;;15.50;53.00;;;;;;5072385;28;20033;-70
2021/05/05 08:54:07;;;;;;;23.85;5.32;;;15.40;54.00;;;;;;5077858;28;20055;-70
2021/05/05 08:56:35;;;;;;;21.77;4.78;;;15.30;53.10;;;;;;5074604;28;20031;-69
2021/05/05 08:59:08;;;;;;;22.55;4.70;;;15.30;53.40;;;;;;5079037;28;20538;-70
2021/05/05 09:01:35;;;;;;;27.77;4.78;;;15.20;54.60;;;;;;5080655;28;20059;-70
2021/05/05 09:04:02;;;;;;;20.15;4.07;;;15.20;53.40;;;;;;5076614;28;20407;-69
2021/05/05 09:06:52;;;;;;;16.85;4.13;;;15.20;55.20;;;;;;5074782;28;20024;-69
2021/05/05 09:09:37;;;;;;;17.52;4.35;;;15.30;53.70;;;;;;5076902;28;20055;-70
2021/05/05 09:12:16;;;;;;;27.40;5.35;;;15.20;53.50;;;;;;5068395;28;20086;-70
2021/05/05 09:15:20;;;;;;;17.25;4.00;;;15.20;55.10;;;;;;5071644;28;20470;-70
2021/05/05 09:17:53;;;;;;;21.30;5.57;;;15.10;54.40;;;;;;5073744;28;20045;-70
2021/05/05 09:20:29;;;;;;;12.40;4.07;;;15.20;54.00;;;;;;5079492;28;20036;-70
2021/05/05 09:22:59;;;;;;;16.00;3.58;;;15.10;55.10;;;;;;5070332;28;20070;-69
2021/05/05 09:25:32;;;;;;;19.77;4.50;;;15.00;55.70;;;;;;5071944;28;20036;-70
2021/05/05 09:28:15;;;;;;;26.42;4.32;;;15.20;54.80;;;;;;5074059;28;20342;-70
2021/05/05 09:30:47;;;;;;;20.70;4.45;;;15.20;54.40;;;;;;5075606;28;20024;-70
2021/05/05 09:33:25;;;;;;;16.75;4.22;;;15.10;55.20;;;;;;5073633;28;20105;-70
2021/05/05 09:36:00;;;;;;;28.92;4.53;;;15.30;56.50;;;;;;5082478;28;20040;-69
2021/05/05 09:38:45;;;;;;;26.98;4.78;;;15.20;54.20;;;;;;5085946;28;20115;-70
2021/05/05 09:41:17;;;;;;;22.55;5.20;;;15.20;54.10;;;;;;5074237;28;20510;-69
2021/05/05 09:43:44;;;;;;;20.70;4.13;;;15.10;54.10;;;;;;5069546;28;20457;-70
2021/05/05 09:46:30;;;;;;;22.58;4.78;;;15.20;55.90;;;;;;5072317;28;20037;-70
2021/05/05 09:49:21;;;;;;;24.83;4.47;;;15.20;56.70;;;;;;5073598;28;20028;-69
2021/05/05 09:51:58;;;;;;;13.10;3.47;;;15.20;55.70;;;;;;5064845;28;20032;-70
2021/05/05 09:54:37;;;;;;;15.70;3.85;;;15.30;57.10;;;;;;5069697;28;20029;-70
2021/05/05 09:57:32;;;;;;;20.98;6.25;;;15.10;55.40;;;;;;5073070;28;20449;-70
2021/05/05 10:00:05;;;;;;;14.63;3.38;;;14.90;55.40;;;;;;5072079;28;20349;-69
2021/05/05 10:02:44;;;;;;;17.20;5.25;;;14.80;56.70;;;;;;5071081;28;20404;-69
2021/05/05 10:05:34;;;;;;;15.02;4.93;;;14.80;55.40;;;;;;5071323;28;20017;-69
2021/05/05 10:08:07;;;;;;;11.25;3.30;;;14.70;54.80;;;;;;5071530;28;20038;-69
2021/05/05 10:10:38;;;;;;;11.77;3.63;;;14.70;56.20;;;;;;5073328;28;20060;-69
2021/05/05 10:13:06;;;;;;;14.82;3.45;;;14.60;57.10;;;;;;5071550;28;20442;-69
2021/05/05 10:15:36;;;;;;;19.33;4.05;;;14.60;56.50;;;;;;5082644;28;20032;-69
2021/05/05 10:18:04;;;;;;;14.57;3.25;;;14.60;55.60;;;;;;5071116;28;20074;-69
2021/05/05 10:20:32;;;;;;;11.38;3.97;;;14.50;56.50;;;;;;5077192;28;20029;-69
2021/05/05 10:23:03;;;;;;;19.13;4.03;;;14.60;56.60;;;;;;5073662;28;20108;-69
2021/05/05 10:25:31;;;;;;;26.42;4.57;;;14.60;56.30;;;;;;5085171;28;20036;-69
2021/05/05 10:27:58;;;;;;;11.55;3.25;;;14.60;56.90;;;;;;5074163;28;20033;-69
2021/05/05 10:30:31;;;;;;;9.77;3.60;;;14.60;54.60;;;;;;5066808;28;20027;-69
2021/05/05 10:32:58;;;;;;;13.73;3.60;;;14.60;56.30;;;;;;5073140;28;20086;-69
2021/05/05 10:35:25;;;;;;;8.52;2.65;;;14.60;54.70;;;;;;5079850;28;20032;-70
2021/05/05 10:37:58;;;;;;;20.85;3.58;;;14.50;56.50;;;;;;5071652;28;20071;-70
2021/05/05 10:40:26;;;;;;;12.27;3.83;;;14.60;55.40;;;;;;5068304;28;20047;-70
2021/05/05 10:43:01;;;;;;;17.08;4.22;;;14.60;55.40;;;;;;5086461;28;20051;-69
2021/05/05 10:45:29;;;;;;;12.40;3.55;;;14.60;55.40;;;;;;5080956;28;20335;-70
2021/05/05 10:48:06;;;;;;;16.00;3.72;;;14.60;55.60;;;;;;5075636;28;20024;-69
2021/05/05 10:50:54;;;;;;;14.75;3.40;;;14.60;56.70;;;;;;5062158;28;20032;-69
2021/05/05 10:53:21;;;;;;;14.70;5.72;;;14.60;56.90;;;;;;5066032;28;20068;-69
2021/05/05 10:55:56;;;;;;;14.85;3.65;;;14.60;57.30;;;;;;5070172;28;20029;-69
2021/05/05 10:58:24;;;;;;;8.35;3.05;;;14.50;57.00;;;;;;5071693;28;20035;-73
2021/05/05 11:00:59;;;;;;;10.02;4.00;;;14.50;55.90;;;;;;5072850;28;20425;-73
2021/05/05 11:03:49;;;;;;;19.02;3.25;;;14.30;56.50;;;;;;5075955;28;20028;-73
2021/05/05 11:06:35;;;;;;;10.05;4.10;;;14.40;56.90;;;;;;5071817;28;20517;-73
2021/05/05 11:09:13;;;;;;;16.77;3.63;;;14.50;58.80;;;;;;5074663;28;20020;-72
2021/05/05 11:11:43;;;;;;;13.18;4.05;;;14.40;58.10;;;;;;5072761;28;20047;-72
2021/05/05 11:14:32;;;;;;;11.02;3.00;;;14.30;57.70;;;;;;5077535;28;20408;-72
2021/05/05 11:17:03;;;;;;;13.13;4.65;;;14.10;57.10;;;;;;5063952;28;20058;-73
2021/05/05 11:22:15;;;;;;;14.40;4.47;;;14.10;56.40;;;;;;5071110;28;20021;-74
2021/05/05 11:24:41;;;;;;;13.02;3.92;;;14.20;56.40;;;;;;5073993;28;20035;-73
2021/05/05 11:27:10;;;;;;;13.15;3.95;;;14.10;56.90;;;;;;5072257;28;20031;-72
2021/05/05 11:29:42;;;;;;;10.48;3.17;;;14.10;57.90;;;;;;5080677;28;20036;-73
2021/05/05 11:32:16;;;;;;;;;;;14.10;59.00;;;;;;5073963;28;20032;-73
2021/05/05 11:34:47;;;;;;;12.48;2.92;;;14.00;56.40;;;;;;5077864;28;19912;-73
2021/05/05 11:37:22;;;;;;;9.75;3.05;;;14.10;56.00;;;;;;5071502;28;20025;-73
2021/05/05 11:39:58;;;;;;;8.35;2.95;;;14.00;57.50;;;;;;5075132;28;20027;-73
2021/05/05 11:42:38;;;;;;;12.00;4.60;;;14.10;57.00;;;;;;5070890;28;20430;-73
2021/05/05 11:45:10;;;;;;;12.57;4.20;;;14.10;56.90;;;;;;5078041;28;20032;-73
2021/05/05 11:47:39;;;;;;;12.20;3.35;;;14.20;57.60;;;;;;5071050;28;20067;-72
2021/05/05 11:50:25;;;;;;;10.15;2.50;;;14.10;56.60;;;;;;5072275;28;20037;-72
2021/05/05 11:52:54;;;;;;;8.40;2.85;;;14.10;56.30;;;;;;5067213;28;20032;-73
2021/05/05 11:55:23;;;;;;;10.85;4.47;;;14.00;58.10;;;;;;5065975;28;20030;-73
2021/05/05 11:57:52;;;;;;;5.63;2.15;;;14.00;57.60;;;;;;5073402;28;20465;-73
2021/05/05 12:00:29;;;;;;;9.38;2.30;;;13.90;58.20;;;;;;5072411;28;20020;-73
2021/05/05 12:02:57;;;;;;;8.32;3.03;;;13.90;57.00;;;;;;5069730;28;20027;-74
2021/05/05 12:05:28;;;;;;;8.73;2.40;;;14.10;59.10;;;;;;5064943;28;20021;-73
2021/05/05 12:08:22;;;;;;;9.52;2.42;;;14.10;57.60;;;;;;5083451;28;20028;-72
2021/05/05 12:10:52;;;;;;;7.15;2.40;;;14.10;57.60;;;;;;5075144;28;20499;-73
2021/05/05 12:13:31;;;;;;;4.93;2.88;;;14.00;57.90;;;;;;5088751;28;20032;-73
2021/05/05 12:16:09;;;;;;;8.65;3.35;;;14.10;59.00;;;;;;5075109;28;20029;-73
2021/05/05 12:18:47;;;;;;;6.97;3.25;;;14.00;57.50;;;;;;5091765;28;20027;-74
2021/05/05 12:21:16;;;;;;;5.68;2.22;;;14.00;58.50;;;;;;5075616;28;20027;-73
2021/05/05 12:23:49;;;;;;;7.43;2.75;;;14.10;59.00;;;;;;5077036;28;20021;-72
2021/05/05 12:26:21;;;;;;;6.60;2.30;;;14.10;59.30;;;;;;5076747;28;20046;-73
2021/05/05 12:28:49;;;;;;;4.97;2.20;;;14.00;57.90;;;;;;5076964;28;20037;-73
2021/05/05 12:31:18;;;;;;;6.00;2.20;;;14.00;59.00;;;;;;5075908;28;20035;-72
2021/05/05 12:33:46;;;;;;;4.30;2.10;;;13.90;57.30;;;;;;5077897;28;20028;-72
2021/05/05 12:36:18;;;;;;;5.35;3.90;;;13.80;59.40;;;;;;5075607;28;20024;-73
2021/05/05 12:38:47;;;;;;;3.55;2.05;;;13.80;59.20;;;;;;5078744;28;20013;-72
2021/05/05 12:41:17;;;;;;;3.58;1.55;;;13.80;58.00;;;;;;5075317;28;20017;-71
2021/05/05 12:43:49;;;;;;;6.78;2.00;;;13.80;58.40;;;;;;5083736;28;20017;-72
2021/05/05 12:46:33;;;;;;;10.97;2.30;;;13.80;57.70;;;;;;5085571;28;20056;-72
2021/05/05 12:49:02;;;;;;;7.15;2.55;;;13.90;57.00;;;;;;5079049;28;20020;-73
2021/05/05 12:51:37;;;;;;;4.78;2.50;;;13.90;57.50;;;;;;5073668;28;20032;-73
2021/05/05 12:54:04;;;;;;;4.80;1.63;;;14.00;57.80;;;;;;5063919;28;20043;-73
2021/05/05 12:56:39;;;;;;;3.65;1.70;;;14.20;59.90;;;;;;5074445;28;20067;-73